PWSweather.com
Personal Weather Stations
Station Observations
SHAHALMS1
Eftra, Falkenberg, HA

EftraFalkenberg, HA

Lat: 56.85, Lon: 12.65

Elevation: 140

Station Type:

http://hem.passagen.se/risarp101

High Low Average
Temperature 51.3°F10.7°C 46.2°F7.9°C 48.3°F9.1°C
Dew Point 47.3°F8.5°C 42.2°F5.7°C 44.3°F6.8°C
Winds 6.5 mph 10.5 kmh Calm Calm 2.0 mph S3.2 kmh S
Wind Gusts 13.6 mph21.9 kmh -- 6.0 mph9.7 kmh
Humidity 89% 79% 86%
Pressure 29.92 in1013.2 mb 29.83 in1010.2 mb -
Precipitation 0.00 in0.0 mm - -
Hour Temp Dew Point Humidity Winds Wind Gusts Pressure Precip Precip Rate Daily Precip Total
12:00 AM 50.2°F10.1°C 43.9°F6.6°C 79% 0.2 mph W0.3 kmh W 5.7 mph9.2 kmh 29.92 in1013.2 mb 0.00 in0.0 mm 0.00 in0.0 mm 0.00 in0.0 mm
12:15 AM 49.8°F9.9°C 43.9°F6.6°C 80% 5.2 mph W8.4 kmh W 10.4 mph16.7 kmh 29.92 in1013.2 mb 0.00 in0.0 mm 0.00 in0.0 mm 0.00 in0.0 mm
12:30 AM 48.9°F9.4°C 43.7°F6.5°C 82% 6.5 mph WSW10.5 kmh WSW 11.8 mph19.0 kmh 29.92 in1013.2 mb 0.00 in0.0 mm 0.00 in0.0 mm 0.00 in0.0 mm
12:45 AM 47.8°F8.8°C 42.9°F6.1°C 83% 6.3 mph W10.1 kmh W 13.6 mph21.9 kmh 29.92 in1013.2 mb 0.00 in0.0 mm 0.00 in0.0 mm 0.00 in0.0 mm
01:00 AM 47.5°F8.6°C 42.6°F5.9°C 83% 0.9 mph WSW1.4 kmh WSW 6.1 mph9.8 kmh 29.92 in1013.2 mb 0.00 in0.0 mm 0.00 in0.0 mm 0.00 in0.0 mm
01:15 AM 47.3°F8.5°C 42.4°F5.8°C 83% Calm Calm -- 29.92 in1013.2 mb 0.00 in0.0 mm 0.00 in0.0 mm 0.00 in0.0 mm
01:30 AM 46.9°F8.3°C 42.4°F5.8°C 84% 0.4 mph W0.6 kmh W 5.0 mph8.0 kmh 29.92 in1013.2 mb 0.00 in0.0 mm 0.00 in0.0 mm 0.00 in0.0 mm
01:45 AM 46.8°F8.2°C 42.2°F5.7°C 84% 0.6 mph W1.0 kmh W 5.4 mph8.7 kmh 29.92 in1013.2 mb 0.00 in0.0 mm 0.00 in0.0 mm 0.00 in0.0 mm
02:00 AM 46.8°F8.2°C 42.5°F5.8°C 85% 3.9 mph SW6.3 kmh SW 7.9 mph12.7 kmh 29.92 in1013.2 mb 0.00 in0.0 mm 0.00 in0.0 mm 0.00 in0.0 mm
02:15 AM 46.8°F8.2°C 42.5°F5.8°C 85% 2.5 mph WSW4.0 kmh WSW 6.8 mph10.9 kmh 29.89 in1012.2 mb 0.00 in0.0 mm 0.00 in0.0 mm 0.00 in0.0 mm
02:30 AM 46.9°F8.3°C 42.7°F5.9°C 85% 2.0 mph SW3.2 kmh SW 5.7 mph9.2 kmh 29.92 in1013.2 mb 0.00 in0.0 mm 0.00 in0.0 mm 0.00 in0.0 mm
02:45 AM 46.8°F8.2°C 42.8°F6.0°C 86% 3.3 mph S5.3 kmh S 10.4 mph16.7 kmh 29.89 in1012.2 mb 0.00 in0.0 mm 0.00 in0.0 mm 0.00 in0.0 mm
03:00 AM 46.8°F8.2°C 42.8°F6.0°C 86% 3.2 mph S5.1 kmh S 7.5 mph12.1 kmh 29.92 in1013.2 mb 0.00 in0.0 mm 0.00 in0.0 mm 0.00 in0.0 mm
03:15 AM 46.8°F8.2°C 42.8°F6.0°C 86% 3.3 mph S5.3 kmh S 11.5 mph18.5 kmh 29.89 in1012.2 mb 0.00 in0.0 mm 0.00 in0.0 mm 0.00 in0.0 mm
03:30 AM 46.8°F8.2°C 42.8°F6.0°C 86% 1.2 mph S1.9 kmh S 5.4 mph8.7 kmh 29.89 in1012.2 mb 0.00 in0.0 mm 0.00 in0.0 mm 0.00 in0.0 mm
03:45 AM 46.8°F8.2°C 42.8°F6.0°C 86% 1.0 mph WSW1.6 kmh WSW 5.4 mph8.7 kmh 29.89 in1012.2 mb 0.00 in0.0 mm 0.00 in0.0 mm 0.00 in0.0 mm
04:00 AM 46.8°F8.2°C 43.1°F6.2°C 87% 0.7 mph SSW1.1 kmh SSW 5.4 mph8.7 kmh 29.89 in1012.2 mb 0.00 in0.0 mm 0.00 in0.0 mm 0.00 in0.0 mm
04:15 AM 46.8°F8.2°C 42.8°F6.0°C 86% 1.5 mph W2.4 kmh W 5.7 mph9.2 kmh 29.89 in1012.2 mb 0.00 in0.0 mm 0.00 in0.0 mm 0.00 in0.0 mm
04:30 AM 46.8°F8.2°C 43.1°F6.2°C 87% Calm Calm 1.4 mph2.3 kmh 29.86 in1011.2 mb 0.00 in0.0 mm 0.00 in0.0 mm 0.00 in0.0 mm
04:45 AM 46.8°F8.2°C 43.1°F6.2°C 87% Calm Calm 1.4 mph2.3 kmh 29.89 in1012.2 mb 0.00 in0.0 mm 0.00 in0.0 mm 0.00 in0.0 mm
05:00 AM 46.9°F8.3°C 43.3°F6.3°C 87% Calm Calm -- 29.86 in1011.2 mb 0.00 in0.0 mm 0.00 in0.0 mm 0.00 in0.0 mm
05:15 AM 46.8°F8.2°C 43.1°F6.2°C 87% Calm Calm -- 29.86 in1011.2 mb 0.00 in0.0 mm 0.00 in0.0 mm 0.00 in0.0 mm
05:30 AM 46.8°F8.2°C 43.1°F6.2°C 87% 0.6 mph WSW1.0 kmh WSW 4.3 mph6.9 kmh 29.86 in1011.2 mb 0.00 in0.0 mm 0.00 in0.0 mm 0.00 in0.0 mm
05:45 AM 46.8°F8.2°C 43.1°F6.2°C 87% 0.3 mph S0.5 kmh S 3.6 mph5.8 kmh 29.86 in1011.2 mb 0.00 in0.0 mm 0.00 in0.0 mm 0.00 in0.0 mm
06:00 AM 46.8°F8.2°C 43.1°F6.2°C 87% 1.1 mph SSW1.8 kmh SSW 6.1 mph9.8 kmh 29.86 in1011.2 mb 0.00 in0.0 mm 0.00 in0.0 mm 0.00 in0.0 mm
06:15 AM 46.6°F8.1°C 42.9°F6.1°C 87% 0.4 mph S0.6 kmh S 4.7 mph7.6 kmh 29.86 in1011.2 mb 0.00 in0.0 mm 0.00 in0.0 mm 0.00 in0.0 mm
06:30 AM 46.8°F8.2°C 43.1°F6.2°C 87% 0.3 mph WSW0.5 kmh WSW 3.9 mph6.3 kmh 29.86 in1011.2 mb 0.00 in0.0 mm 0.00 in0.0 mm 0.00 in0.0 mm
06:45 AM 46.6°F8.1°C 42.9°F6.1°C 87% 3.4 mph S5.5 kmh S 9.3 mph15.0 kmh 29.86 in1011.2 mb 0.00 in0.0 mm 0.00 in0.0 mm 0.00 in0.0 mm
07:00 AM 46.6°F8.1°C 43.2°F6.2°C 88% 2.8 mph S4.5 kmh S 6.8 mph10.9 kmh 29.86 in1011.2 mb 0.00 in0.0 mm 0.00 in0.0 mm 0.00 in0.0 mm
07:15 AM 46.4°F8.0°C 43.0°F6.1°C 88% 5.1 mph S8.2 kmh S 11.5 mph18.5 kmh 29.89 in1012.2 mb 0.00 in0.0 mm 0.00 in0.0 mm 0.00 in0.0 mm
07:30 AM 46.2°F7.9°C 43.2°F6.2°C 89% 4.9 mph S7.9 kmh S 10.4 mph16.7 kmh 29.89 in1012.2 mb 0.00 in0.0 mm 0.00 in0.0 mm 0.00 in0.0 mm
07:45 AM 46.4°F8.0°C 43.3°F6.3°C 89% 5.1 mph SSW8.2 kmh SSW 10.0 mph16.1 kmh 29.89 in1012.2 mb 0.00 in0.0 mm 0.00 in0.0 mm 0.00 in0.0 mm
08:00 AM 46.2°F7.9°C 43.2°F6.2°C 89% 3.9 mph SW6.3 kmh SW 9.3 mph15.0 kmh 29.89 in1012.2 mb 0.00 in0.0 mm 0.00 in0.0 mm 0.00 in0.0 mm
08:15 AM 46.6°F8.1°C 43.5°F6.4°C 89% 2.1 mph SSW3.4 kmh SSW 6.1 mph9.8 kmh 29.89 in1012.2 mb 0.00 in0.0 mm 0.00 in0.0 mm 0.00 in0.0 mm
08:30 AM 46.8°F8.2°C 43.7°F6.5°C 89% 2.3 mph WSW3.7 kmh WSW 6.8 mph10.9 kmh 29.89 in1012.2 mb 0.00 in0.0 mm 0.00 in0.0 mm 0.00 in0.0 mm
08:45 AM 46.9°F8.3°C 43.9°F6.6°C 89% 3.0 mph SSW4.8 kmh SSW 10.4 mph16.7 kmh 29.89 in1012.2 mb 0.00 in0.0 mm 0.00 in0.0 mm 0.00 in0.0 mm
09:00 AM 47.3°F8.5°C 44.2°F6.8°C 89% 4.3 mph SSW6.9 kmh SSW 10.0 mph16.1 kmh 29.89 in1012.2 mb 0.00 in0.0 mm 0.00 in0.0 mm 0.00 in0.0 mm
09:15 AM 47.3°F8.5°C 44.2°F6.8°C 89% 5.6 mph SSW9.0 kmh SSW 11.8 mph19.0 kmh 29.89 in1012.2 mb 0.00 in0.0 mm 0.00 in0.0 mm 0.00 in0.0 mm
09:30 AM 47.5°F8.6°C 44.4°F6.9°C 89% 4.5 mph SSW7.2 kmh SSW 10.4 mph16.7 kmh 29.92 in1013.2 mb 0.00 in0.0 mm 0.00 in0.0 mm 0.00 in0.0 mm
09:45 AM 47.3°F8.5°C 43.9°F6.6°C 88% 4.7 mph SSW7.6 kmh SSW 9.7 mph15.6 kmh 29.92 in1013.2 mb 0.00 in0.0 mm 0.00 in0.0 mm 0.00 in0.0 mm
10:00 AM 47.1°F8.4°C 44.0°F6.7°C 89% 4.4 mph SW7.1 kmh SW 9.3 mph15.0 kmh 29.92 in1013.2 mb 0.00 in0.0 mm 0.00 in0.0 mm 0.00 in0.0 mm
10:15 AM 47.3°F8.5°C 43.9°F6.6°C 88% 3.5 mph S5.6 kmh S 9.3 mph15.0 kmh 29.89 in1012.2 mb 0.00 in0.0 mm 0.00 in0.0 mm 0.00 in0.0 mm
10:30 AM 47.3°F8.5°C 43.9°F6.6°C 88% 2.8 mph S4.5 kmh S 6.8 mph10.9 kmh 29.92 in1013.2 mb 0.00 in0.0 mm 0.00 in0.0 mm 0.00 in0.0 mm
10:45 AM 47.3°F8.5°C 43.9°F6.6°C 88% 4.8 mph SSW7.7 kmh SSW 11.8 mph19.0 kmh 29.92 in1013.2 mb 0.00 in0.0 mm 0.00 in0.0 mm 0.00 in0.0 mm
11:00 AM 47.5°F8.6°C 44.4°F6.9°C 89% 2.5 mph SSW4.0 kmh SSW 6.4 mph10.3 kmh 29.92 in1013.2 mb 0.00 in0.0 mm 0.00 in0.0 mm 0.00 in0.0 mm
11:15 AM 47.7°F8.7°C 44.6°F7.0°C 89% 3.6 mph SSW5.8 kmh SSW 7.9 mph12.7 kmh 29.92 in1013.2 mb 0.00 in0.0 mm 0.00 in0.0 mm 0.00 in0.0 mm
11:30 AM 48.2°F9.0°C 45.1°F7.3°C 89% 2.4 mph SSW3.9 kmh SSW 6.4 mph10.3 kmh 29.92 in1013.2 mb 0.00 in0.0 mm 0.00 in0.0 mm 0.00 in0.0 mm
11:45 AM 48.6°F9.2°C 45.5°F7.5°C 89% 3.2 mph WSW5.1 kmh WSW 7.2 mph11.6 kmh 29.92 in1013.2 mb 0.00 in0.0 mm 0.00 in0.0 mm 0.00 in0.0 mm
12:00 PM 48.6°F9.2°C 45.2°F7.3°C 88% 3.1 mph SW5.0 kmh SW 8.6 mph13.8 kmh 29.92 in1013.2 mb 0.00 in0.0 mm 0.00 in0.0 mm 0.00 in0.0 mm
12:15 PM 48.7°F9.3°C 45.3°F7.4°C 88% 1.6 mph WSW2.6 kmh WSW 5.0 mph8.0 kmh 29.92 in1013.2 mb 0.00 in0.0 mm 0.00 in0.0 mm 0.00 in0.0 mm
12:30 PM 48.7°F9.3°C 45.3°F7.4°C 88% 4.2 mph SW6.8 kmh SW 8.9 mph14.3 kmh 29.92 in1013.2 mb 0.00 in0.0 mm 0.00 in0.0 mm 0.00 in0.0 mm
12:45 PM 48.2°F9.0°C 44.5°F6.9°C 87% 5.0 mph WSW8.0 kmh WSW 8.9 mph14.3 kmh 29.92 in1013.2 mb 0.00 in0.0 mm 0.00 in0.0 mm 0.00 in0.0 mm
01:00 PM 48.6°F9.2°C 45.2°F7.3°C 88% 1.8 mph W2.9 kmh W 6.8 mph10.9 kmh 29.89 in1012.2 mb 0.00 in0.0 mm 0.00 in0.0 mm 0.00 in0.0 mm
01:15 PM 49.3°F9.6°C 45.9°F7.7°C 88% 5.0 mph W8.0 kmh W 10.0 mph16.1 kmh 29.92 in1013.2 mb 0.00 in0.0 mm 0.00 in0.0 mm 0.00 in0.0 mm
01:30 PM 49.6°F9.8°C 45.9°F7.7°C 87% 3.9 mph SW6.3 kmh SW 9.3 mph15.0 kmh 29.92 in1013.2 mb 0.00 in0.0 mm 0.00 in0.0 mm 0.00 in0.0 mm
01:45 PM 51.1°F10.6°C 47.3°F8.5°C 87% 3.7 mph WSW6.0 kmh WSW 8.6 mph13.8 kmh 29.92 in1013.2 mb 0.00 in0.0 mm 0.00 in0.0 mm 0.00 in0.0 mm
02:00 PM 51.1°F10.6°C 46.7°F8.2°C 85% 3.4 mph SW5.5 kmh SW 9.3 mph15.0 kmh 29.92 in1013.2 mb 0.00 in0.0 mm 0.00 in0.0 mm 0.00 in0.0 mm
02:15 PM 50.4°F10.2°C 45.7°F7.6°C 84% 4.5 mph SW7.2 kmh SW 9.7 mph15.6 kmh 29.89 in1012.2 mb 0.00 in0.0 mm 0.00 in0.0 mm 0.00 in0.0 mm
02:30 PM 50.4°F10.2°C 45.7°F7.6°C 84% 4.6 mph WSW7.4 kmh WSW 10.4 mph16.7 kmh 29.92 in1013.2 mb 0.00 in0.0 mm 0.00 in0.0 mm 0.00 in0.0 mm
02:45 PM 51.1°F10.6°C 46.4°F8.0°C 84% 2.3 mph WSW3.7 kmh WSW 8.9 mph14.3 kmh 29.92 in1013.2 mb 0.00 in0.0 mm 0.00 in0.0 mm 0.00 in0.0 mm
03:00 PM 50.7°F10.4°C 45.7°F7.6°C 83% 4.2 mph WSW6.8 kmh WSW 9.3 mph15.0 kmh 29.92 in1013.2 mb 0.00 in0.0 mm 0.00 in0.0 mm 0.00 in0.0 mm
03:15 PM 50.4°F10.2°C 45.4°F7.4°C 83% 3.5 mph S5.6 kmh S 11.5 mph18.5 kmh 29.92 in1013.2 mb 0.00 in0.0 mm 0.00 in0.0 mm 0.00 in0.0 mm
03:30 PM 50.5°F10.3°C 45.9°F7.7°C 84% 2.8 mph S4.5 kmh S 7.9 mph12.7 kmh 29.92 in1013.2 mb 0.00 in0.0 mm 0.00 in0.0 mm 0.00 in0.0 mm
03:45 PM 50.9°F10.5°C 46.2°F7.9°C 84% 2.0 mph SSW3.2 kmh SSW 6.1 mph9.8 kmh 29.89 in1012.2 mb 0.00 in0.0 mm 0.00 in0.0 mm 0.00 in0.0 mm
04:00 PM 51.3°F10.7°C 46.6°F8.1°C 84% 4.5 mph S7.2 kmh S 10.4 mph16.7 kmh 29.89 in1012.2 mb 0.00 in0.0 mm 0.00 in0.0 mm 0.00 in0.0 mm
04:15 PM 50.9°F10.5°C 45.9°F7.7°C 83% 3.5 mph S5.6 kmh S 6.8 mph10.9 kmh 29.89 in1012.2 mb 0.00 in0.0 mm 0.00 in0.0 mm 0.00 in0.0 mm
04:30 PM 50.4°F10.2°C 45.1°F7.3°C 82% 2.0 mph S3.2 kmh S 6.8 mph10.9 kmh 29.89 in1012.2 mb 0.00 in0.0 mm 0.00 in0.0 mm 0.00 in0.0 mm
04:45 PM 49.8°F9.9°C 44.9°F7.2°C 83% 2.4 mph S3.9 kmh S 7.2 mph11.6 kmh 29.89 in1012.2 mb 0.00 in0.0 mm 0.00 in0.0 mm 0.00 in0.0 mm
05:00 PM 49.6°F9.8°C 45.0°F7.2°C 84% 1.5 mph S2.4 kmh S 8.6 mph13.8 kmh 29.86 in1011.2 mb 0.00 in0.0 mm 0.00 in0.0 mm 0.00 in0.0 mm
05:15 PM 49.8°F9.9°C 45.2°F7.3°C 84% 0.7 mph SSE1.1 kmh SSE 6.8 mph10.9 kmh 29.86 in1011.2 mb 0.00 in0.0 mm 0.00 in0.0 mm 0.00 in0.0 mm
05:30 PM 49.6°F9.8°C 45.0°F7.2°C 84% 0.2 mph S0.3 kmh S 3.9 mph6.3 kmh 29.86 in1011.2 mb 0.00 in0.0 mm 0.00 in0.0 mm 0.00 in0.0 mm
05:45 PM 49.6°F9.8°C 45.3°F7.4°C 85% Calm Calm -- 29.86 in1011.2 mb 0.00 in0.0 mm 0.00 in0.0 mm 0.00 in0.0 mm
06:00 PM 49.5°F9.7°C 45.1°F7.3°C 85% 0.4 mph S0.6 kmh S 4.7 mph7.6 kmh 29.83 in1010.2 mb 0.00 in0.0 mm 0.00 in0.0 mm 0.00 in0.0 mm
06:15 PM 49.3°F9.6°C 45.0°F7.2°C 85% 0.3 mph W0.5 kmh W 3.2 mph5.1 kmh 29.86 in1011.2 mb 0.00 in0.0 mm 0.00 in0.0 mm 0.00 in0.0 mm
06:30 PM 49.3°F9.6°C 45.0°F7.2°C 85% 0.5 mph S0.8 kmh S 4.3 mph6.9 kmh 29.86 in1011.2 mb 0.00 in0.0 mm 0.00 in0.0 mm 0.00 in0.0 mm
06:45 PM 49.1°F9.5°C 44.8°F7.1°C 85% 0.9 mph SE1.4 kmh SE 6.4 mph10.3 kmh 29.89 in1012.2 mb 0.00 in0.0 mm 0.00 in0.0 mm 0.00 in0.0 mm
07:00 PM 48.9°F9.4°C 44.9°F7.2°C 86% Calm Calm -- 29.86 in1011.2 mb 0.00 in0.0 mm 0.00 in0.0 mm 0.00 in0.0 mm
07:15 PM 48.9°F9.4°C 44.9°F7.2°C 86% 0.6 mph E1.0 kmh E 6.4 mph10.3 kmh 29.86 in1011.2 mb 0.00 in0.0 mm 0.00 in0.0 mm 0.00 in0.0 mm
07:30 PM 48.7°F9.3°C 44.7°F7.1°C 86% 0.7 mph E1.1 kmh E 6.4 mph10.3 kmh 29.86 in1011.2 mb 0.00 in0.0 mm 0.00 in0.0 mm 0.00 in0.0 mm
07:45 PM 48.7°F9.3°C 44.7°F7.1°C 86% Calm Calm -- 29.86 in1011.2 mb 0.00 in0.0 mm 0.00 in0.0 mm 0.00 in0.0 mm
08:00 PM 48.7°F9.3°C 45.0°F7.2°C 87% 3.7 mph E6.0 kmh E 7.9 mph12.7 kmh 29.86 in1011.2 mb 0.00 in0.0 mm 0.00 in0.0 mm 0.00 in0.0 mm
08:15 PM 48.7°F9.3°C 45.0°F7.2°C 87% 0.7 mph E1.1 kmh E 6.4 mph10.3 kmh 29.86 in1011.2 mb 0.00 in0.0 mm 0.00 in0.0 mm 0.00 in0.0 mm
08:30 PM 48.7°F9.3°C 45.0°F7.2°C 87% Calm Calm -- 29.86 in1011.2 mb 0.00 in0.0 mm 0.00 in0.0 mm 0.00 in0.0 mm
08:45 PM 48.6°F9.2°C 44.9°F7.2°C 87% Calm Calm -- 29.86 in1011.2 mb 0.00 in0.0 mm 0.00 in0.0 mm 0.00 in0.0 mm
09:00 PM 48.6°F9.2°C 44.9°F7.2°C 87% 0.2 mph E0.3 kmh E 4.3 mph6.9 kmh 29.86 in1011.2 mb 0.00 in0.0 mm 0.00 in0.0 mm 0.00 in0.0 mm
09:15 PM 48.6°F9.2°C 44.9°F7.2°C 87% 0.1 mph SE0.2 kmh SE 1.8 mph2.9 kmh 29.86 in1011.2 mb 0.00 in0.0 mm 0.00 in0.0 mm 0.00 in0.0 mm
09:30 PM 48.6°F9.2°C 44.9°F7.2°C 87% 0.4 mph S0.6 kmh S 4.3 mph6.9 kmh 29.86 in1011.2 mb 0.00 in0.0 mm 0.00 in0.0 mm 0.00 in0.0 mm
09:45 PM 48.6°F9.2°C 44.9°F7.2°C 87% Calm Calm -- 29.86 in1011.2 mb 0.00 in0.0 mm 0.00 in0.0 mm 0.00 in0.0 mm
10:00 PM 48.6°F9.2°C 44.9°F7.2°C 87% Calm Calm -- 29.86 in1011.2 mb 0.00 in0.0 mm 0.00 in0.0 mm 0.00 in0.0 mm
10:15 PM 48.7°F9.3°C 45.0°F7.2°C 87% Calm Calm -- 29.86 in1011.2 mb 0.00 in0.0 mm 0.00 in0.0 mm 0.00 in0.0 mm
10:30 PM 48.7°F9.3°C 45.0°F7.2°C 87% Calm Calm -- 29.86 in1011.2 mb 0.00 in0.0 mm 0.00 in0.0 mm 0.00 in0.0 mm
10:45 PM 48.6°F9.2°C 44.9°F7.2°C 87% Calm Calm -- 29.83 in1010.2 mb 0.00 in0.0 mm 0.00 in0.0 mm 0.00 in0.0 mm
11:00 PM 48.6°F9.2°C 44.9°F7.2°C 87% Calm Calm -- 29.86 in1011.2 mb 0.00 in0.0 mm 0.00 in0.0 mm 0.00 in0.0 mm
11:15 PM 48.7°F9.3°C 45.0°F7.2°C 87% 0.3 mph S0.5 kmh S 2.5 mph4.0 kmh 29.86 in1011.2 mb 0.00 in0.0 mm 0.00 in0.0 mm 0.00 in0.0 mm
11:30 PM 48.6°F9.2°C 44.9°F7.2°C 87% 1.4 mph S2.3 kmh S 5.4 mph8.7 kmh 29.83 in1010.2 mb 0.00 in0.0 mm 0.00 in0.0 mm 0.00 in0.0 mm
11:45 PM 48.6°F9.2°C 44.9°F7.2°C 87% 0.3 mph S0.5 kmh S 4.7 mph7.6 kmh 29.86 in1011.2 mb 0.00 in0.0 mm 0.00 in0.0 mm 0.00 in0.0 mm